sensor_id;sensor_type;location;lat;lon;timestamp;P1;durP1;ratioP1;P2;durP2;ratioP2
41817;SDS011;27493;51.730;5.294;2023-03-11T00:01:39;5.33;;;1.50;;
41817;SDS011;27493;51.730;5.294;2023-03-11T00:04:05;3.07;;;1.20;;
41817;SDS011;27493;51.730;5.294;2023-03-11T00:06:30;3.30;;;0.80;;
41817;SDS011;27493;51.730;5.294;2023-03-11T00:08:55;4.97;;;1.60;;
41817;SDS011;27493;51.730;5.294;2023-03-11T00:11:20;5.33;;;1.57;;
41817;SDS011;27493;51.730;5.294;2023-03-11T00:13:46;5.67;;;1.40;;
41817;SDS011;27493;51.730;5.294;2023-03-11T00:16:11;8.30;;;1.57;;
41817;SDS011;27493;51.730;5.294;2023-03-11T00:18:36;4.97;;;1.50;;
41817;SDS011;27493;51.730;5.294;2023-03-11T00:21:02;7.27;;;1.30;;
41817;SDS011;27493;51.730;5.294;2023-03-11T00:23:27;3.83;;;1.50;;
41817;SDS011;27493;51.730;5.294;2023-03-11T00:25:52;8.23;;;1.77;;
41817;SDS011;27493;51.730;5.294;2023-03-11T00:28:18;6.00;;;2.03;;
41817;SDS011;27493;51.730;5.294;2023-03-11T00:30:45;3.47;;;1.50;;
41817;SDS011;27493;51.730;5.294;2023-03-11T00:33:14;6.93;;;1.53;;
41817;SDS011;27493;51.730;5.294;2023-03-11T00:35:40;7.37;;;1.63;;
41817;SDS011;27493;51.730;5.294;2023-03-11T00:38:06;3.83;;;1.43;;
41817;SDS011;27493;51.730;5.294;2023-03-11T00:40:32;9.03;;;1.97;;
41817;SDS011;27493;51.730;5.294;2023-03-11T00:42:58;6.10;;;1.80;;
41817;SDS011;27493;51.730;5.294;2023-03-11T00:45:24;10.20;;;1.77;;
41817;SDS011;27493;51.730;5.294;2023-03-11T00:47:49;8.80;;;1.80;;
41817;SDS011;27493;51.730;5.294;2023-03-11T00:50:16;5.53;;;2.20;;
41817;SDS011;27493;51.730;5.294;2023-03-11T00:52:43;6.40;;;1.80;;
41817;SDS011;27493;51.730;5.294;2023-03-11T00:55:09;4.87;;;1.80;;
41817;SDS011;27493;51.730;5.294;2023-03-11T00:57:34;9.33;;;2.03;;
41817;SDS011;27493;51.730;5.294;2023-03-11T01:00:00;6.73;;;1.73;;
41817;SDS011;27493;51.730;5.294;2023-03-11T01:02:25;4.53;;;2.07;;
41817;SDS011;27493;51.730;5.294;2023-03-11T01:04:53;6.13;;;2.03;;
41817;SDS011;27493;51.730;5.294;2023-03-11T01:07:19;4.53;;;1.67;;
41817;SDS011;27493;51.730;5.294;2023-03-11T01:09:44;7.93;;;2.07;;
41817;SDS011;27493;51.730;5.294;2023-03-11T01:12:10;10.20;;;2.00;;
41817;SDS011;27493;51.730;5.294;2023-03-11T01:14:35;4.03;;;1.77;;
41817;SDS011;27493;51.730;5.294;2023-03-11T01:17:00;2.80;;;1.67;;
41817;SDS011;27493;51.730;5.294;2023-03-11T01:19:25;4.33;;;1.97;;
41817;SDS011;27493;51.730;5.294;2023-03-11T01:21:50;5.27;;;1.70;;
41817;SDS011;27493;51.730;5.294;2023-03-11T01:24:15;5.40;;;1.73;;
41817;SDS011;27493;51.730;5.294;2023-03-11T01:26:41;5.10;;;1.60;;
41817;SDS011;27493;51.730;5.294;2023-03-11T01:29:06;6.63;;;2.07;;
41817;SDS011;27493;51.730;5.294;2023-03-11T01:31:31;5.13;;;1.97;;
41817;SDS011;27493;51.730;5.294;2023-03-11T01:33:56;6.50;;;1.50;;
41817;SDS011;27493;51.730;5.294;2023-03-11T01:36:21;3.07;;;1.70;;
41817;SDS011;27493;51.730;5.294;2023-03-11T01:38:47;6.20;;;1.63;;
41817;SDS011;27493;51.730;5.294;2023-03-11T01:41:12;6.23;;;1.57;;
41817;SDS011;27493;51.730;5.294;2023-03-11T01:46:10;4.90;;;1.70;;
41817;SDS011;27493;51.730;5.294;2023-03-11T01:48:36;9.07;;;2.40;;
41817;SDS011;27493;51.730;5.294;2023-03-11T01:51:03;5.27;;;2.10;;
41817;SDS011;27493;51.730;5.294;2023-03-11T01:53:28;7.73;;;2.03;;
41817;SDS011;27493;51.730;5.294;2023-03-11T01:55:53;6.43;;;2.00;;
41817;SDS011;27493;51.730;5.294;2023-03-11T01:58:20;8.37;;;1.77;;
41817;SDS011;27493;51.730;5.294;2023-03-11T02:00:47;9.33;;;1.97;;
41817;SDS011;27493;51.730;5.294;2023-03-11T02:03:45;8.53;;;2.13;;
41817;SDS011;27493;51.730;5.294;2023-03-11T02:06:11;3.90;;;1.87;;
41817;SDS011;27493;51.730;5.294;2023-03-11T02:08:38;9.10;;;1.73;;
41817;SDS011;27493;51.730;5.294;2023-03-11T02:11:05;6.93;;;2.10;;
41817;SDS011;27493;51.730;5.294;2023-03-11T02:13:32;2.07;;;1.47;;
41817;SDS011;27493;51.730;5.294;2023-03-11T02:15:59;8.50;;;2.00;;
41817;SDS011;27493;51.730;5.294;2023-03-11T02:18:24;3.57;;;1.50;;
41817;SDS011;27493;51.730;5.294;2023-03-11T02:20:52;7.60;;;1.90;;
41817;SDS011;27493;51.730;5.294;2023-03-11T02:23:18;5.73;;;2.17;;
41817;SDS011;27493;51.730;5.294;2023-03-11T02:28:29;3.73;;;1.40;;
41817;SDS011;27493;51.730;5.294;2023-03-11T02:30:55;4.33;;;1.60;;
41817;SDS011;27493;51.730;5.294;2023-03-11T02:33:20;6.87;;;1.63;;
41817;SDS011;27493;51.730;5.294;2023-03-11T02:35:47;7.03;;;1.80;;
41817;SDS011;27493;51.730;5.294;2023-03-11T02:38:12;8.30;;;1.67;;
41817;SDS011;27493;51.730;5.294;2023-03-11T02:43:07;5.30;;;2.10;;
41817;SDS011;27493;51.730;5.294;2023-03-11T02:45:33;7.03;;;2.30;;
41817;SDS011;27493;51.730;5.294;2023-03-11T02:47:59;5.93;;;1.93;;
41817;SDS011;27493;51.730;5.294;2023-03-11T02:50:25;9.30;;;1.77;;
41817;SDS011;27493;51.730;5.294;2023-03-11T02:52:51;7.30;;;1.70;;
41817;SDS011;27493;51.730;5.294;2023-03-11T02:55:16;6.63;;;1.63;;
41817;SDS011;27493;51.730;5.294;2023-03-11T02:57:43;6.33;;;1.70;;
41817;SDS011;27493;51.730;5.294;2023-03-11T03:00:08;5.47;;;1.40;;
41817;SDS011;27493;51.730;5.294;2023-03-11T03:02:43;3.20;;;1.67;;
41817;SDS011;27493;51.730;5.294;2023-03-11T03:05:09;4.87;;;1.70;;
41817;SDS011;27493;51.730;5.294;2023-03-11T03:07:34;3.10;;;1.67;;
41817;SDS011;27493;51.730;5.294;2023-03-11T03:10:00;6.37;;;1.70;;
41817;SDS011;27493;51.730;5.294;2023-03-11T03:12:25;3.77;;;1.70;;
41817;SDS011;27493;51.730;5.294;2023-03-11T03:14:50;4.60;;;1.73;;
41817;SDS011;27493;51.730;5.294;2023-03-11T03:17:16;9.23;;;2.03;;
41817;SDS011;27493;51.730;5.294;2023-03-11T03:19:41;2.87;;;1.50;;
41817;SDS011;27493;51.730;5.294;2023-03-11T03:22:06;3.07;;;1.80;;
41817;SDS011;27493;51.730;5.294;2023-03-11T03:24:31;6.20;;;1.80;;
41817;SDS011;27493;51.730;5.294;2023-03-11T03:26:56;5.03;;;1.60;;
41817;SDS011;27493;51.730;5.294;2023-03-11T03:29:22;6.47;;;1.53;;
41817;SDS011;27493;51.730;5.294;2023-03-11T03:31:47;5.60;;;1.93;;
41817;SDS011;27493;51.730;5.294;2023-03-11T03:34:12;5.00;;;2.00;;
41817;SDS011;27493;51.730;5.294;2023-03-11T03:36:37;3.63;;;1.40;;
41817;SDS011;27493;51.730;5.294;2023-03-11T03:39:03;3.43;;;1.80;;
41817;SDS011;27493;51.730;5.294;2023-03-11T03:41:28;6.37;;;1.63;;
41817;SDS011;27493;51.730;5.294;2023-03-11T03:43:54;3.63;;;1.60;;
41817;SDS011;27493;51.730;5.294;2023-03-11T03:46:19;3.83;;;1.63;;
41817;SDS011;27493;51.730;5.294;2023-03-11T03:48:44;5.40;;;1.90;;
41817;SDS011;27493;51.730;5.294;2023-03-11T03:51:10;4.73;;;2.00;;
41817;SDS011;27493;51.730;5.294;2023-03-11T03:53:36;3.30;;;1.73;;
41817;SDS011;27493;51.730;5.294;2023-03-11T03:56:05;5.10;;;1.67;;
41817;SDS011;27493;51.730;5.294;2023-03-11T03:58:31;5.00;;;1.70;;
41817;SDS011;27493;51.730;5.294;2023-03-11T04:00:56;7.87;;;1.90;;
41817;SDS011;27493;51.730;5.294;2023-03-11T04:03:22;5.07;;;1.90;;
41817;SDS011;27493;51.730;5.294;2023-03-11T04:05:48;6.10;;;1.53;;
41817;SDS011;27493;51.730;5.294;2023-03-11T04:08:13;2.67;;;1.70;;
41817;SDS011;27493;51.730;5.294;2023-03-11T04:10:38;5.90;;;2.03;;
41817;SDS011;27493;51.730;5.294;2023-03-11T04:13:03;5.17;;;1.97;;
41817;SDS011;27493;51.730;5.294;2023-03-11T04:15:28;5.27;;;1.80;;
41817;SDS011;27493;51.730;5.294;2023-03-11T04:17:54;3.93;;;1.60;;
41817;SDS011;27493;51.730;5.294;2023-03-11T04:20:19;10.73;;;2.30;;
41817;SDS011;27493;51.730;5.294;2023-03-11T04:22:44;4.73;;;1.87;;
41817;SDS011;27493;51.730;5.294;2023-03-11T04:25:09;3.57;;;1.73;;
41817;SDS011;27493;51.730;5.294;2023-03-11T04:27:35;5.37;;;1.83;;
41817;SDS011;27493;51.730;5.294;2023-03-11T04:30:02;4.90;;;2.83;;
41817;SDS011;27493;51.730;5.294;2023-03-11T04:32:27;4.03;;;1.83;;
41817;SDS011;27493;51.730;5.294;2023-03-11T04:34:52;6.80;;;2.20;;
41817;SDS011;27493;51.730;5.294;2023-03-11T04:37:18;2.43;;;1.80;;
41817;SDS011;27493;51.730;5.294;2023-03-11T04:39:43;3.30;;;2.07;;
41817;SDS011;27493;51.730;5.294;2023-03-11T04:42:08;5.50;;;2.03;;
41817;SDS011;27493;51.730;5.294;2023-03-11T04:44:34;2.70;;;1.50;;
41817;SDS011;27493;51.730;5.294;2023-03-11T04:46:59;9.00;;;2.13;;
41817;SDS011;27493;51.730;5.294;2023-03-11T04:49:24;6.80;;;2.30;;
41817;SDS011;27493;51.730;5.294;2023-03-11T04:51:49;4.20;;;1.90;;
41817;SDS011;27493;51.730;5.294;2023-03-11T04:54:14;8.20;;;1.73;;
41817;SDS011;27493;51.730;5.294;2023-03-11T04:56:40;4.70;;;1.90;;
41817;SDS011;27493;51.730;5.294;2023-03-11T04:59:05;6.00;;;1.90;;
41817;SDS011;27493;51.730;5.294;2023-03-11T05:01:30;3.97;;;2.37;;
41817;SDS011;27493;51.730;5.294;2023-03-11T05:03:55;6.63;;;2.70;;
41817;SDS011;27493;51.730;5.294;2023-03-11T05:06:20;3.70;;;2.00;;
41817;SDS011;27493;51.730;5.294;2023-03-11T05:08:45;6.33;;;1.93;;
41817;SDS011;27493;51.730;5.294;2023-03-11T05:11:11;3.60;;;1.87;;
41817;SDS011;27493;51.730;5.294;2023-03-11T05:13:36;4.37;;;1.80;;
41817;SDS011;27493;51.730;5.294;2023-03-11T05:16:01;9.47;;;2.40;;
41817;SDS011;27493;51.730;5.294;2023-03-11T05:18:26;5.37;;;1.93;;
41817;SDS011;27493;51.730;5.294;2023-03-11T05:20:51;5.30;;;2.43;;
41817;SDS011;27493;51.730;5.294;2023-03-11T05:23:17;6.43;;;2.10;;
41817;SDS011;27493;51.730;5.294;2023-03-11T05:25:42;4.30;;;1.70;;
41817;SDS011;27493;51.730;5.294;2023-03-11T05:28:07;4.93;;;2.10;;
41817;SDS011;27493;51.730;5.294;2023-03-11T05:30:33;3.97;;;2.13;;
41817;SDS011;27493;51.730;5.294;2023-03-11T05:32:58;9.60;;;2.30;;
41817;SDS011;27493;51.730;5.294;2023-03-11T05:35:23;4.87;;;1.97;;
41817;SDS011;27493;51.730;5.294;2023-03-11T05:37:49;3.73;;;1.97;;
41817;SDS011;27493;51.730;5.294;2023-03-11T05:40:14;4.47;;;2.40;;
41817;SDS011;27493;51.730;5.294;2023-03-11T05:42:39;7.63;;;2.20;;
41817;SDS011;27493;51.730;5.294;2023-03-11T05:45:06;4.43;;;2.10;;
41817;SDS011;27493;51.730;5.294;2023-03-11T05:47:31;2.50;;;1.97;;
41817;SDS011;27493;51.730;5.294;2023-03-11T05:49:56;2.80;;;2.00;;
41817;SDS011;27493;51.730;5.294;2023-03-11T05:52:22;4.63;;;2.03;;
41817;SDS011;27493;51.730;5.294;2023-03-11T05:54:50;3.07;;;2.20;;
41817;SDS011;27493;51.730;5.294;2023-03-11T05:57:16;4.97;;;2.43;;
41817;SDS011;27493;51.730;5.294;2023-03-11T05:59:41;7.87;;;2.30;;
41817;SDS011;27493;51.730;5.294;2023-03-11T06:02:06;4.17;;;2.17;;
41817;SDS011;27493;51.730;5.294;2023-03-11T06:04:32;6.13;;;2.00;;
41817;SDS011;27493;51.730;5.294;2023-03-11T06:06:57;4.57;;;1.97;;
41817;SDS011;27493;51.730;5.294;2023-03-11T06:09:22;7.77;;;2.13;;
41817;SDS011;27493;51.730;5.294;2023-03-11T06:11:47;4.07;;;2.13;;
41817;SDS011;27493;51.730;5.294;2023-03-11T06:14:13;6.77;;;2.53;;
41817;SDS011;27493;51.730;5.294;2023-03-11T06:16:38;3.27;;;2.83;;
41817;SDS011;27493;51.730;5.294;2023-03-11T06:19:03;5.47;;;2.07;;
41817;SDS011;27493;51.730;5.294;2023-03-11T06:21:28;4.40;;;2.20;;
41817;SDS011;27493;51.730;5.294;2023-03-11T06:23:54;5.70;;;2.23;;
41817;SDS011;27493;51.730;5.294;2023-03-11T06:26:19;7.47;;;2.77;;
41817;SDS011;27493;51.730;5.294;2023-03-11T06:28:47;5.73;;;2.60;;
41817;SDS011;27493;51.730;5.294;2023-03-11T06:31:19;5.13;;;2.47;;
41817;SDS011;27493;51.730;5.294;2023-03-11T06:33:45;15.40;;;2.73;;
41817;SDS011;27493;51.730;5.294;2023-03-11T06:36:14;6.23;;;2.43;;
41817;SDS011;27493;51.730;5.294;2023-03-11T06:38:40;5.90;;;2.60;;
41817;SDS011;27493;51.730;5.294;2023-03-11T06:41:05;8.37;;;2.60;;
41817;SDS011;27493;51.730;5.294;2023-03-11T06:43:31;5.00;;;2.40;;
41817;SDS011;27493;51.730;5.294;2023-03-11T06:45:57;4.43;;;1.93;;
41817;SDS011;27493;51.730;5.294;2023-03-11T06:48:22;4.83;;;2.30;;
41817;SDS011;27493;51.730;5.294;2023-03-11T06:50:54;12.27;;;2.80;;
41817;SDS011;27493;51.730;5.294;2023-03-11T06:53:21;3.73;;;2.33;;
41817;SDS011;27493;51.730;5.294;2023-03-11T06:55:56;5.73;;;2.50;;
41817;SDS011;27493;51.730;5.294;2023-03-11T06:58:21;2.83;;;2.27;;
41817;SDS011;27493;51.730;5.294;2023-03-11T07:00:46;4.03;;;2.17;;
41817;SDS011;27493;51.730;5.294;2023-03-11T07:03:11;5.07;;;2.50;;
41817;SDS011;27493;51.730;5.294;2023-03-11T07:05:37;5.83;;;2.67;;
41817;SDS011;27493;51.730;5.294;2023-03-11T07:14:07;5.57;;;2.67;;
41817;SDS011;27493;51.730;5.294;2023-03-11T07:16:32;4.97;;;2.13;;
41817;SDS011;27493;51.730;5.294;2023-03-11T07:18:58;7.43;;;2.43;;
41817;SDS011;27493;51.730;5.294;2023-03-11T07:21:25;3.70;;;1.97;;
41817;SDS011;27493;51.730;5.294;2023-03-11T07:23:51;3.67;;;1.87;;
41817;SDS011;27493;51.730;5.294;2023-03-11T07:26:17;5.90;;;2.70;;
41817;SDS011;27493;51.730;5.294;2023-03-11T07:28:42;6.40;;;2.33;;
41817;SDS011;27493;51.730;5.294;2023-03-11T07:31:09;8.50;;;2.50;;
41817;SDS011;27493;51.730;5.294;2023-03-11T07:33:35;5.63;;;2.70;;
41817;SDS011;27493;51.730;5.294;2023-03-11T07:36:03;4.67;;;2.20;;
41817;SDS011;27493;51.730;5.294;2023-03-11T07:38:28;7.27;;;2.93;;
41817;SDS011;27493;51.730;5.294;2023-03-11T07:40:57;5.43;;;2.80;;
41817;SDS011;27493;51.730;5.294;2023-03-11T07:43:22;5.03;;;2.10;;
41817;SDS011;27493;51.730;5.294;2023-03-11T07:45:48;6.17;;;2.40;;
41817;SDS011;27493;51.730;5.294;2023-03-11T07:48:14;7.17;;;2.73;;
41817;SDS011;27493;51.730;5.294;2023-03-11T07:50:39;3.97;;;2.00;;
41817;SDS011;27493;51.730;5.294;2023-03-11T07:53:04;7.70;;;2.00;;
41817;SDS011;27493;51.730;5.294;2023-03-11T07:55:29;4.90;;;2.30;;
41817;SDS011;27493;51.730;5.294;2023-03-11T07:57:55;6.03;;;2.47;;
41817;SDS011;27493;51.730;5.294;2023-03-11T08:00:20;2.37;;;1.90;;
41817;SDS011;27493;51.730;5.294;2023-03-11T08:02:45;3.77;;;2.10;;
41817;SDS011;27493;51.730;5.294;2023-03-11T08:05:10;4.53;;;2.00;;
41817;SDS011;27493;51.730;5.294;2023-03-11T08:07:35;5.63;;;2.27;;
41817;SDS011;27493;51.730;5.294;2023-03-11T08:10:01;9.07;;;2.20;;
41817;SDS011;27493;51.730;5.294;2023-03-11T08:12:26;2.80;;;1.93;;
41817;SDS011;27493;51.730;5.294;2023-03-11T08:14:51;6.87;;;2.53;;
41817;SDS011;27493;51.730;5.294;2023-03-11T08:17:16;6.70;;;2.20;;
41817;SDS011;27493;51.730;5.294;2023-03-11T08:19:41;9.53;;;1.87;;
41817;SDS011;27493;51.730;5.294;2023-03-11T08:22:07;3.80;;;1.87;;
41817;SDS011;27493;51.730;5.294;2023-03-11T08:24:32;5.70;;;1.90;;
41817;SDS011;27493;51.730;5.294;2023-03-11T08:26:57;4.27;;;1.77;;
41817;SDS011;27493;51.730;5.294;2023-03-11T08:29:23;5.63;;;2.53;;
41817;SDS011;27493;51.730;5.294;2023-03-11T08:31:48;4.10;;;1.87;;
41817;SDS011;27493;51.730;5.294;2023-03-11T08:34:13;5.30;;;1.80;;
41817;SDS011;27493;51.730;5.294;2023-03-11T08:36:39;3.17;;;1.80;;
41817;SDS011;27493;51.730;5.294;2023-03-11T08:39:04;5.33;;;1.83;;
41817;SDS011;27493;51.730;5.294;2023-03-11T08:41:29;5.50;;;1.57;;
41817;SDS011;27493;51.730;5.294;2023-03-11T08:43:54;3.50;;;1.70;;
41817;SDS011;27493;51.730;5.294;2023-03-11T08:46:22;3.63;;;1.90;;
41817;SDS011;27493;51.730;5.294;2023-03-11T08:48:48;4.47;;;1.83;;
41817;SDS011;27493;51.730;5.294;2023-03-11T08:51:13;4.80;;;1.70;;
41817;SDS011;27493;51.730;5.294;2023-03-11T08:53:38;2.13;;;1.30;;
41817;SDS011;27493;51.730;5.294;2023-03-11T08:56:04;7.83;;;1.50;;
41817;SDS011;27493;51.730;5.294;2023-03-11T08:58:29;2.37;;;1.70;;
41817;SDS011;27493;51.730;5.294;2023-03-11T09:00:54;5.93;;;1.80;;
41817;SDS011;27493;51.730;5.294;2023-03-11T09:03:21;5.00;;;1.90;;
41817;SDS011;27493;51.730;5.294;2023-03-11T09:05:46;6.57;;;1.80;;
41817;SDS011;27493;51.730;5.294;2023-03-11T09:08:11;3.80;;;1.73;;
41817;SDS011;27493;51.730;5.294;2023-03-11T09:10:36;3.37;;;1.60;;
41817;SDS011;27493;51.730;5.294;2023-03-11T09:13:02;6.53;;;1.70;;
41817;SDS011;27493;51.730;5.294;2023-03-11T09:15:27;12.23;;;1.70;;
41817;SDS011;27493;51.730;5.294;2023-03-11T09:17:52;6.27;;;1.90;;
41817;SDS011;27493;51.730;5.294;2023-03-11T09:20:18;1.97;;;1.30;;
41817;SDS011;27493;51.730;5.294;2023-03-11T09:22:43;2.77;;;1.40;;
41817;SDS011;27493;51.730;5.294;2023-03-11T09:25:09;2.20;;;1.27;;
41817;SDS011;27493;51.730;5.294;2023-03-11T09:27:35;2.30;;;1.10;;
41817;SDS011;27493;51.730;5.294;2023-03-11T09:30:01;2.30;;;1.47;;
41817;SDS011;27493;51.730;5.294;2023-03-11T09:32:26;5.00;;;1.77;;
41817;SDS011;27493;51.730;5.294;2023-03-11T09:34:51;2.67;;;1.63;;
41817;SDS011;27493;51.730;5.294;2023-03-11T09:37:16;4.23;;;1.30;;
41817;SDS011;27493;51.730;5.294;2023-03-11T09:39:41;2.20;;;1.40;;
41817;SDS011;27493;51.730;5.294;2023-03-11T09:52:17;6.77;;;1.50;;
41817;SDS011;27493;51.730;5.294;2023-03-11T09:54:47;4.83;;;1.37;;
41817;SDS011;27493;51.730;5.294;2023-03-11T09:57:18;3.53;;;1.20;;
41817;SDS011;27493;51.730;5.294;2023-03-11T09:59:45;3.57;;;1.20;;
41817;SDS011;27493;51.730;5.294;2023-03-11T10:02:11;3.70;;;1.83;;
41817;SDS011;27493;51.730;5.294;2023-03-11T10:04:40;7.60;;;1.23;;
41817;SDS011;27493;51.730;5.294;2023-03-11T10:07:09;3.83;;;1.20;;
41817;SDS011;27493;51.730;5.294;2023-03-11T10:09:37;3.47;;;1.20;;
41817;SDS011;27493;51.730;5.294;2023-03-11T10:20:21;4.03;;;1.20;;
41817;SDS011;27493;51.730;5.294;2023-03-11T10:27:57;3.17;;;1.00;;
41817;SDS011;27493;51.730;5.294;2023-03-11T10:30:31;2.60;;;0.97;;
41817;SDS011;27493;51.730;5.294;2023-03-11T10:33:03;1.60;;;0.90;;
41817;SDS011;27493;51.730;5.294;2023-03-11T10:35:38;2.63;;;0.90;;
41817;SDS011;27493;51.730;5.294;2023-03-11T10:38:06;3.73;;;1.20;;
41817;SDS011;27493;51.730;5.294;2023-03-11T10:40:34;4.47;;;1.20;;
41817;SDS011;27493;51.730;5.294;2023-03-11T10:43:02;6.60;;;1.10;;
41817;SDS011;27493;51.730;5.294;2023-03-11T10:45:27;3.50;;;1.50;;
41817;SDS011;27493;51.730;5.294;2023-03-11T10:47:57;2.30;;;0.93;;
41817;SDS011;27493;51.730;5.294;2023-03-11T10:50:22;4.33;;;1.00;;
41817;SDS011;27493;51.730;5.294;2023-03-11T10:53:04;4.07;;;1.00;;
41817;SDS011;27493;51.730;5.294;2023-03-11T10:55:29;3.83;;;1.20;;
41817;SDS011;27493;51.730;5.294;2023-03-11T10:58:37;2.30;;;1.13;;
41817;SDS011;27493;51.730;5.294;2023-03-11T11:00:43;4.63;;;1.00;;
41817;SDS011;27493;51.730;5.294;2023-03-11T11:03:20;3.73;;;1.20;;
41817;SDS011;27493;51.730;5.294;2023-03-11T11:05:48;4.33;;;1.07;;
41817;SDS011;27493;51.730;5.294;2023-03-11T11:08:20;3.13;;;1.07;;
41817;SDS011;27493;51.730;5.294;2023-03-11T11:10:52;5.03;;;1.20;;
41817;SDS011;27493;51.730;5.294;2023-03-11T11:13:19;3.60;;;1.20;;
41817;SDS011;27493;51.730;5.294;2023-03-11T11:18:17;5.77;;;1.40;;
41817;SDS011;27493;51.730;5.294;2023-03-11T11:23:31;5.37;;;1.30;;
41817;SDS011;27493;51.730;5.294;2023-03-11T11:25:57;4.33;;;1.30;;
41817;SDS011;27493;51.730;5.294;2023-03-11T11:28:23;2.80;;;1.20;;
41817;SDS011;27493;51.730;5.294;2023-03-11T11:30:53;2.03;;;1.07;;
41817;SDS011;27493;51.730;5.294;2023-03-11T11:33:20;7.77;;;1.57;;
41817;SDS011;27493;51.730;5.294;2023-03-11T11:35:49;4.17;;;1.20;;
41817;SDS011;27493;51.730;5.294;2023-03-11T11:38:15;3.63;;;1.03;;
41817;SDS011;27493;51.730;5.294;2023-03-11T11:40:40;1.90;;;1.00;;
41817;SDS011;27493;51.730;5.294;2023-03-11T11:43:15;4.47;;;1.40;;
41817;SDS011;27493;51.730;5.294;2023-03-11T11:45:43;4.63;;;1.00;;
41817;SDS011;27493;51.730;5.294;2023-03-11T11:48:20;3.80;;;1.30;;
41817;SDS011;27493;51.730;5.294;2023-03-11T11:51:09;4.40;;;1.37;;
41817;SDS011;27493;51.730;5.294;2023-03-11T11:53:46;3.10;;;1.20;;
41817;SDS011;27493;51.730;5.294;2023-03-11T11:56:13;3.70;;;1.03;;
41817;SDS011;27493;51.730;5.294;2023-03-11T11:58:39;3.40;;;1.00;;
41817;SDS011;27493;51.730;5.294;2023-03-11T12:06:03;3.63;;;1.17;;
41817;SDS011;27493;51.730;5.294;2023-03-11T12:08:38;4.27;;;1.10;;
41817;SDS011;27493;51.730;5.294;2023-03-11T12:11:07;5.43;;;1.50;;
41817;SDS011;27493;51.730;5.294;2023-03-11T12:26:28;3.40;;;1.07;;
41817;SDS011;27493;51.730;5.294;2023-03-11T12:29:09;3.83;;;1.37;;
41817;SDS011;27493;51.730;5.294;2023-03-11T12:31:37;3.73;;;1.33;;
41817;SDS011;27493;51.730;5.294;2023-03-11T12:34:03;2.80;;;1.30;;
41817;SDS011;27493;51.730;5.294;2023-03-11T12:36:30;3.10;;;1.10;;
41817;SDS011;27493;51.730;5.294;2023-03-11T12:38:57;6.07;;;1.30;;
41817;SDS011;27493;51.730;5.294;2023-03-11T12:41:26;4.87;;;1.37;;
41817;SDS011;27493;51.730;5.294;2023-03-11T12:46:17;4.27;;;1.20;;
41817;SDS011;27493;51.730;5.294;2023-03-11T12:48:57;3.23;;;1.13;;
41817;SDS011;27493;51.730;5.294;2023-03-11T12:53:58;3.87;;;1.20;;
41817;SDS011;27493;51.730;5.294;2023-03-11T12:56:43;3.67;;;1.10;;
41817;SDS011;27493;51.730;5.294;2023-03-11T13:01:50;5.27;;;1.40;;
41817;SDS011;27493;51.730;5.294;2023-03-11T13:09:45;2.57;;;1.07;;
41817;SDS011;27493;51.730;5.294;2023-03-11T13:12:56;1.73;;;0.93;;
41817;SDS011;27493;51.730;5.294;2023-03-11T13:15:20;2.77;;;1.37;;
41817;SDS011;27493;51.730;5.294;2023-03-11T13:18:02;4.47;;;1.43;;
41817;SDS011;27493;51.730;5.294;2023-03-11T13:20:38;2.17;;;1.37;;
41817;SDS011;27493;51.730;5.294;2023-03-11T13:23:52;4.27;;;1.27;;
41817;SDS011;27493;51.730;5.294;2023-03-11T13:31:05;2.40;;;1.03;;
41817;SDS011;27493;51.730;5.294;2023-03-11T13:33:50;2.20;;;1.40;;
41817;SDS011;27493;51.730;5.294;2023-03-11T13:36:22;1.23;;;1.10;;
41817;SDS011;27493;51.730;5.294;2023-03-11T13:41:52;4.43;;;1.17;;
41817;SDS011;27493;51.730;5.294;2023-03-11T13:46:43;1.50;;;1.07;;
41817;SDS011;27493;51.730;5.294;2023-03-11T13:51:57;3.90;;;1.30;;
41817;SDS011;27493;51.730;5.294;2023-03-11T13:54:37;2.47;;;1.10;;
41817;SDS011;27493;51.730;5.294;2023-03-11T13:57:03;6.63;;;1.40;;
41817;SDS011;27493;51.730;5.294;2023-03-11T13:59:29;1.77;;;1.17;;
41817;SDS011;27493;51.730;5.294;2023-03-11T14:01:56;4.27;;;1.10;;
41817;SDS011;27493;51.730;5.294;2023-03-11T14:04:26;2.60;;;1.20;;
41817;SDS011;27493;51.730;5.294;2023-03-11T14:06:51;3.70;;;1.70;;
41817;SDS011;27493;51.730;5.294;2023-03-11T14:09:20;1.20;;;1.10;;
41817;SDS011;27493;51.730;5.294;2023-03-11T14:11:46;2.07;;;1.07;;
41817;SDS011;27493;51.730;5.294;2023-03-11T14:14:55;3.70;;;1.30;;
41817;SDS011;27493;51.730;5.294;2023-03-11T14:17:01;2.50;;;1.20;;
41817;SDS011;27493;51.730;5.294;2023-03-11T14:22:30;3.77;;;1.33;;
41817;SDS011;27493;51.730;5.294;2023-03-11T14:28:00;1.70;;;1.10;;
41817;SDS011;27493;51.730;5.294;2023-03-11T14:30:26;3.53;;;1.57;;
41817;SDS011;27493;51.730;5.294;2023-03-11T14:33:14;4.13;;;1.40;;
41817;SDS011;27493;51.730;5.294;2023-03-11T14:35:40;2.23;;;1.30;;
41817;SDS011;27493;51.730;5.294;2023-03-11T14:38:28;3.80;;;1.50;;
41817;SDS011;27493;51.730;5.294;2023-03-11T14:40:55;2.87;;;1.33;;
41817;SDS011;27493;51.730;5.294;2023-03-11T14:43:20;2.03;;;1.30;;
41817;SDS011;27493;51.730;5.294;2023-03-11T14:45:46;1.93;;;1.10;;
41817;SDS011;27493;51.730;5.294;2023-03-11T14:48:18;1.57;;;1.20;;
41817;SDS011;27493;51.730;5.294;2023-03-11T14:50:47;4.10;;;1.33;;
41817;SDS011;27493;51.730;5.294;2023-03-11T15:03:25;3.13;;;1.40;;
41817;SDS011;27493;51.730;5.294;2023-03-11T15:06:08;4.00;;;1.20;;
41817;SDS011;27493;51.730;5.294;2023-03-11T15:08:46;2.07;;;1.30;;
41817;SDS011;27493;51.730;5.294;2023-03-11T15:13:38;2.37;;;1.23;;
41817;SDS011;27493;51.730;5.294;2023-03-11T15:16:04;2.07;;;1.20;;
41817;SDS011;27493;51.730;5.294;2023-03-11T15:18:31;3.00;;;1.20;;
41817;SDS011;27493;51.730;5.294;2023-03-11T15:21:00;3.60;;;1.30;;
41817;SDS011;27493;51.730;5.294;2023-03-11T15:23:26;2.30;;;1.37;;
41817;SDS011;27493;51.730;5.294;2023-03-11T15:25:51;3.17;;;1.43;;
41817;SDS011;27493;51.730;5.294;2023-03-11T15:28:21;3.10;;;1.30;;
41817;SDS011;27493;51.730;5.294;2023-03-11T15:30:48;2.37;;;1.40;;
41817;SDS011;27493;51.730;5.294;2023-03-11T15:33:20;2.50;;;1.40;;
41817;SDS011;27493;51.730;5.294;2023-03-11T15:35:46;2.80;;;1.60;;
41817;SDS011;27493;51.730;5.294;2023-03-11T15:38:22;2.83;;;1.30;;
41817;SDS011;27493;51.730;5.294;2023-03-11T15:40:50;6.03;;;1.40;;
41817;SDS011;27493;51.730;5.294;2023-03-11T15:45:50;6.73;;;1.60;;
41817;SDS011;27493;51.730;5.294;2023-03-11T15:48:18;1.77;;;1.30;;
41817;SDS011;27493;51.730;5.294;2023-03-11T15:50:50;2.63;;;1.07;;
41817;SDS011;27493;51.730;5.294;2023-03-11T15:53:15;3.13;;;1.33;;
41817;SDS011;27493;51.730;5.294;2023-03-11T15:55:41;3.03;;;1.20;;
41817;SDS011;27493;51.730;5.294;2023-03-11T15:58:06;1.73;;;1.17;;
41817;SDS011;27493;51.730;5.294;2023-03-11T16:00:33;5.47;;;1.77;;
41817;SDS011;27493;51.730;5.294;2023-03-11T16:02:58;4.10;;;1.70;;
41817;SDS011;27493;51.730;5.294;2023-03-11T16:05:23;6.33;;;1.70;;
41817;SDS011;27493;51.730;5.294;2023-03-11T16:07:49;5.13;;;1.30;;
41817;SDS011;27493;51.730;5.294;2023-03-11T16:10:15;4.40;;;1.70;;
41817;SDS011;27493;51.730;5.294;2023-03-11T16:12:40;2.57;;;1.40;;
41817;SDS011;27493;51.730;5.294;2023-03-11T16:15:15;2.07;;;1.33;;
41817;SDS011;27493;51.730;5.294;2023-03-11T16:17:42;3.87;;;1.50;;
41817;SDS011;27493;51.730;5.294;2023-03-11T16:20:07;7.77;;;1.70;;
41817;SDS011;27493;51.730;5.294;2023-03-11T16:22:33;6.20;;;1.40;;
41817;SDS011;27493;51.730;5.294;2023-03-11T16:25:01;3.73;;;1.30;;
41817;SDS011;27493;51.730;5.294;2023-03-11T16:27:27;4.47;;;1.40;;
41817;SDS011;27493;51.730;5.294;2023-03-11T16:29:52;3.57;;;1.33;;
41817;SDS011;27493;51.730;5.294;2023-03-11T16:32:17;1.70;;;1.27;;
41817;SDS011;27493;51.730;5.294;2023-03-11T16:34:42;2.23;;;1.37;;
41817;SDS011;27493;51.730;5.294;2023-03-11T16:37:09;3.17;;;1.60;;